Aérodrome :







RETROUVEZ-NOUS SUR...

 
LOGIN :

S'inscrire | Disclaimer

   EN    FR    IT 

 









Légende :    VFR   VFR Marginal   IFR   IFR Intensif   IFR Très Intensif
Visi : 
Plafond : 
>= 8 km
>= 3000ft
5 à 8 km
1000 à 3000 ft
1500m à 5 km
500 à 1000 ft
800 à 1500m
200 à 500 ft
< 800m
< 200 ft
Symboles :   Orages  Brouillard  Fortes neiges  Fortes précipitations  Vent > 20 kt






- Altitude de l'aérodrome : 108 ft
- Code IATA : YAY


CYAY - St Anthony

DERNIER METAR :
  • 122322Z AUTO 10021G27KT 1SM -SN VV007 M01/M02 A2987 RMK ICG PRESFR SLP119

METARs EXPIRÉS :
  • 122311Z AUTO 09025G31KT 3/4SM -SN VV007 M01/M02 A2988 RMK ICG PRESFR SLP121
  • 122303Z AUTO 10021G27KT 3/4SM -SN VV008 M02/M02 A2990 RMK ICG PRESFR SLP127
  • 122258Z AUTO 10021G27KT 3/4SM -SN VV007 M02/M02 A2989 RMK ICG PRESFR SLP126
  • 122200Z AUTO 10018G23KT 3/4SM -SN VV005 M02/M03 A2998 RMK ICG INTMT PRESFR SLP155
  • 122141Z AUTO 10019G27KT 3/4SM -SN VV007 M02/M03 A3001 RMK ICG INTMT SLP166
  • 122133Z AUTO 10017KT 3/4SM -SN VV009 M02/M03 A3001 RMK ICG PRESFR SLP168
  • 122108Z AUTO 11022G27KT 1 1/4SM -SN VV010 M03/M04 A3004 RMK ICG PRESFR SLP178
  • 122102Z AUTO 11021G27KT 1SM -SN VV008 M03/M04 A3005 RMK ICG INTMT PRESFR SLP180

TAF AMD TAF CYAY
Valide du 12 à 21h jusqu'au 13 à 08h UTC


122122Z 1221/1308 12018G28KT 1/2SM SN BLSN VV006
TEMPO 1221/1301 2SM -SN VV012
PROB30 1223/1301 1SM -PL -FZRA BR OVC010
FM130100 12020G30KT 1SM RA BR OVC005
TEMPO 1301/1308 3SM -RA BR SCT005 OVC010
BECMG 1302/1304 16015KT RMK FCST BASED ON AUTO OBS. NXT FCST BY 130200Z



MET'MAP, la Météo Aéronautique d'un coup d'oeil ! - Copyright ORBIFLY Décembre 2007 - Disclaimer

ORBIFLY MET'MAP TEAM :

Programmation & Développement : Alexandra Zaïnal
Conception & Développement : Baudouin d'Aumeries
Co-Programmation & Développement : Marc-Olivier Méhu
Soutien technique & logistique : Manuel Goepfert

Contact : metmap@orbifly.com




SOURCES & CREDITS :

   NOAA